Time;durP1;ratioP1;P1;durP2;ratioP2;P2;SDS_P1;SDS_P2;PMS_P1;PMS_P2;Temp;Humidity;BMP_temperature;BMP_pressure;BME280_temperature;BME280_humidity;BME280_pressure;Samples;Min_cycle;Max_cycle;Signal;HPM_P1;HPM_P2
2023/12/17 00:01:25;;;;;;;23.90;10.30;;;8.80;1.00;;;;;;5066349;28;20405;-73
2023/12/17 00:03:51;;;;;;;25.10;8.70;;;8.80;1.00;;;;;;5051789;28;20317;-70
2023/12/17 00:06:16;;;;;;;22.50;9.97;;;8.90;1.00;;;;;;5056622;28;20193;-70
2023/12/17 00:08:43;;;;;;;18.13;9.00;;;8.90;1.00;;;;;;5053362;28;20568;-71
2023/12/17 00:11:09;;;;;;;14.03;8.63;;;8.90;1.00;;;;;;5037063;28;20213;-69
2023/12/17 00:13:36;;;;;;;20.60;9.73;;;8.90;1.00;;;;;;5064919;28;20431;-68
2023/12/17 00:16:05;;;;;;;25.93;10.33;;;8.90;1.00;;;;;;5051228;28;20407;-70
2023/12/17 00:18:30;;;;;;;19.10;9.37;;;8.90;1.00;;;;;;5054102;28;20489;-70
2023/12/17 00:20:56;;;;;;;21.33;9.53;;;8.90;1.00;;;;;;5059029;28;20441;-73
2023/12/17 00:23:22;;;;;;;18.00;8.87;;;8.90;1.00;;;;;;5066123;28;20173;-73
2023/12/17 00:25:47;;;;;;;17.23;8.60;;;8.90;1.00;;;;;;5052996;28;20197;-71
2023/12/17 00:28:13;;;;;;;16.30;8.30;;;9.00;1.00;;;;;;5049638;28;20197;-72
2023/12/17 00:30:39;;;;;;;19.40;10.83;;;8.90;1.00;;;;;;5041755;28;20191;-73
2023/12/17 00:33:04;;;;;;;26.40;10.23;;;8.90;1.00;;;;;;5041353;28;20183;-69
2023/12/17 00:35:30;;;;;;;16.17;8.97;;;8.90;1.00;;;;;;5051415;28;20176;-72
2023/12/17 00:37:56;;;;;;;19.53;10.77;;;8.90;1.00;;;;;;5059527;28;20294;-70
2023/12/17 00:40:21;;;;;;;21.43;9.70;;;9.00;1.00;;;;;;5054065;28;20594;-67
2023/12/17 00:42:47;;;;;;;21.87;10.40;;;9.00;1.00;;;;;;5042166;28;20239;-69
2023/12/17 00:45:13;;;;;;;17.20;10.80;;;9.00;1.00;;;;;;5050620;28;20182;-73
2023/12/17 00:47:39;;;;;;;12.47;8.37;;;9.00;1.00;;;;;;5058679;28;20200;-69
2023/12/17 00:50:05;;;;;;;21.03;9.07;;;9.00;1.00;;;;;;5054784;28;20890;-71
2023/12/17 00:52:32;;;;;;;26.83;7.53;;;9.00;1.00;;;;;;5054922;28;20181;-72
2023/12/17 00:54:58;;;;;;;15.70;9.40;;;9.00;1.00;;;;;;5054134;28;20409;-73
2023/12/17 00:57:25;;;;;;;20.23;10.37;;;9.00;1.00;;;;;;5053057;28;20514;-68
2023/12/17 00:59:50;;;;;;;20.67;8.83;;;9.10;1.00;;;;;;5051998;28;20639;-73
2023/12/17 01:02:16;;;;;;;22.47;10.57;;;9.10;1.00;;;;;;5047342;28;20439;-71
2023/12/17 01:04:42;;;;;;;20.67;10.23;;;9.00;1.00;;;;;;5056890;28;20176;-69
2023/12/17 01:07:07;;;;;;;18.87;9.50;;;9.10;1.00;;;;;;5063338;28;20567;-69
2023/12/17 01:09:33;;;;;;;17.47;8.90;;;9.10;1.00;;;;;;5049482;28;20580;-74
2023/12/17 01:12:02;;;;;;;11.30;8.13;;;9.10;1.00;;;;;;5035494;28;20222;-74
2023/12/17 01:14:34;;;;;;;16.83;8.10;;;9.00;1.00;;;;;;5038507;28;20183;-70
2023/12/17 01:17:00;;;;;;;19.30;8.53;;;9.10;1.00;;;;;;5055083;28;20968;-69
2023/12/17 01:19:26;;;;;;;17.90;11.07;;;9.10;1.00;;;;;;5053580;28;20412;-69
2023/12/17 01:21:52;;;;;;;20.60;9.90;;;9.10;1.00;;;;;;5065074;28;20500;-73
2023/12/17 01:24:17;;;;;;;18.27;7.90;;;9.10;1.00;;;;;;5056273;28;20187;-72
2023/12/17 01:26:43;;;;;;;23.87;8.80;;;9.10;1.00;;;;;;5032700;28;20180;-73
2023/12/17 01:29:09;;;;;;;13.80;8.40;;;9.10;1.00;;;;;;5047872;28;20535;-69
2023/12/17 01:31:35;;;;;;;8.80;6.07;;;9.20;1.00;;;;;;5059606;28;20545;-70
2023/12/17 01:34:00;;;;;;;13.53;8.43;;;9.20;1.00;;;;;;5053372;28;20182;-72
2023/12/17 01:36:26;;;;;;;27.30;11.40;;;9.20;1.00;;;;;;5050927;28;20908;-69
2023/12/17 01:38:52;;;;;;;17.17;7.80;;;9.20;1.00;;;;;;5056232;28;20593;-73
2023/12/17 01:41:17;;;;;;;23.23;8.50;;;9.10;1.00;;;;;;5048848;28;20185;-70
2023/12/17 01:43:43;;;;;;;15.37;9.60;;;9.10;1.00;;;;;;5044465;28;20183;-71
2023/12/17 01:46:09;;;;;;;20.30;11.40;;;9.20;1.00;;;;;;5061144;28;20566;-74
2023/12/17 01:48:35;;;;;;;17.63;9.57;;;9.20;1.00;;;;;;5057414;28;20197;-73
2023/12/17 01:51:02;;;;;;;19.80;8.10;;;9.20;1.00;;;;;;5034977;28;20575;-70
2023/12/17 01:53:28;;;;;;;19.63;10.83;;;9.20;1.00;;;;;;5048957;28;20461;-70
2023/12/17 01:55:54;;;;;;;20.40;7.90;;;9.20;1.00;;;;;;5050157;28;20768;-70
2023/12/17 01:58:20;;;;;;;14.60;8.73;;;9.20;1.00;;;;;;5061965;28;20459;-69
2023/12/17 02:00:48;;;;;;;24.73;9.23;;;9.30;1.00;;;;;;5056979;28;20631;-71
2023/12/17 02:03:14;;;;;;;19.67;8.50;;;9.20;1.00;;;;;;5049692;28;20477;-74
2023/12/17 02:05:40;;;;;;;19.47;8.37;;;9.20;1.00;;;;;;5049937;28;20510;-74
2023/12/17 02:08:06;;;;;;;16.87;9.33;;;9.20;1.00;;;;;;5051944;28;20464;-72
2023/12/17 02:10:31;;;;;;;13.23;10.20;;;9.30;1.00;;;;;;5053064;28;20270;-70
2023/12/17 02:13:01;;;;;;;19.07;8.83;;;9.30;1.00;;;;;;5045080;28;20177;-69
2023/12/17 02:15:27;;;;;;;16.40;8.50;;;9.30;1.00;;;;;;5035514;28;20263;-74
2023/12/17 02:17:52;;;;;;;21.87;10.83;;;9.30;1.00;;;;;;5048916;28;20579;-72
2023/12/17 02:20:18;;;;;;;14.60;8.43;;;9.30;1.00;;;;;;5049855;28;20569;-73
2023/12/17 02:22:49;;;;;;;18.77;8.63;;;9.30;1.00;;;;;;5052174;28;20206;-74
2023/12/17 02:25:14;;;;;;;18.37;10.20;;;9.30;1.00;;;;;;5046710;28;20799;-69
2023/12/17 02:27:41;;;;;;;17.80;9.80;;;9.30;1.00;;;;;;5038030;28;20445;-70
2023/12/17 02:30:08;;;;;;;31.00;10.50;;;9.30;1.00;;;;;;5048216;28;20175;-69
2023/12/17 02:32:33;;;;;;;13.13;8.67;;;9.30;1.00;;;;;;5050803;28;20460;-72
2023/12/17 02:34:59;;;;;;;17.93;10.10;;;9.30;1.00;;;;;;5052732;28;20472;-69
2023/12/17 02:37:25;;;;;;;16.87;8.13;;;9.30;1.00;;;;;;5071244;28;20788;-73
2023/12/17 02:39:50;;;;;;;15.77;9.87;;;9.30;1.00;;;;;;5062078;28;20683;-73
2023/12/17 02:42:17;;;;;;;15.80;8.47;;;9.30;1.00;;;;;;5051415;28;20166;-73
2023/12/17 02:44:43;;;;;;;22.37;9.33;;;9.30;1.00;;;;;;5042583;28;20241;-69
2023/12/17 02:47:08;;;;;;;23.00;8.63;;;9.30;1.00;;;;;;5049137;28;20839;-72
2023/12/17 02:49:35;;;;;;;24.43;9.97;;;9.30;1.00;;;;;;5054227;28;20206;-73
2023/12/17 02:52:01;;;;;;;20.87;9.47;;;9.30;1.00;;;;;;5055523;28;20662;-68
2023/12/17 02:54:27;;;;;;;15.03;8.70;;;9.30;1.00;;;;;;5041364;28;20442;-70
2023/12/17 02:56:53;;;;;;;12.80;9.00;;;9.30;1.00;;;;;;5058887;28;20443;-69
2023/12/17 02:59:19;;;;;;;18.80;8.73;;;9.30;1.00;;;;;;5055490;28;20427;-70
2023/12/17 03:01:45;;;;;;;22.30;9.00;;;9.30;1.00;;;;;;5055579;28;20186;-74
2023/12/17 03:04:11;;;;;;;25.57;9.70;;;9.30;1.00;;;;;;5044992;28;20269;-74
2023/12/17 03:06:38;;;;;;;18.83;9.00;;;9.30;1.00;;;;;;5057637;28;20435;-73
2023/12/17 03:09:04;;;;;;;14.53;8.60;;;9.30;1.00;;;;;;5063144;28;20205;-70
2023/12/17 03:11:30;;;;;;;17.37;8.73;;;9.30;1.00;;;;;;5055222;28;20467;-68
2023/12/17 03:13:56;;;;;;;19.90;9.10;;;9.30;1.00;;;;;;5055981;28;20399;-70
2023/12/17 03:16:23;;;;;;;20.20;9.00;;;9.30;1.00;;;;;;5054833;28;20171;-69
2023/12/17 03:18:49;;;;;;;14.97;9.60;;;9.30;1.00;;;;;;5063071;28;20427;-73
2023/12/17 03:21:15;;;;;;;20.73;8.80;;;9.30;1.00;;;;;;5062486;28;20431;-74
2023/12/17 03:23:41;;;;;;;25.67;9.13;;;9.30;1.00;;;;;;5038111;28;20652;-73
2023/12/17 03:26:07;;;;;;;16.23;10.67;;;9.30;1.00;;;;;;5039108;28;20199;-73
2023/12/17 03:28:32;;;;;;;15.80;9.77;;;9.30;1.00;;;;;;5051999;28;20203;-69
2023/12/17 03:30:58;;;;;;;8.50;7.00;;;9.30;1.00;;;;;;5055962;28;20379;-72
2023/12/17 03:33:24;;;;;;;13.90;8.70;;;9.30;1.00;;;;;;5053430;28;20193;-69
2023/12/17 03:35:50;;;;;;;14.03;9.03;;;9.30;1.00;;;;;;5057585;28;20193;-74
2023/12/17 03:38:15;;;;;;;12.90;7.47;;;9.30;1.00;;;;;;5054303;28;20214;-72
2023/12/17 03:40:41;;;;;;;10.90;8.37;;;9.30;1.00;;;;;;5053440;28;20177;-70
2023/12/17 03:43:07;;;;;;;14.00;8.53;;;9.30;1.00;;;;;;5041509;28;20187;-71
2023/12/17 03:45:33;;;;;;;18.67;7.80;;;9.30;1.00;;;;;;5038405;28;20179;-73
2023/12/17 03:48:00;;;;;;;15.17;8.30;;;9.30;1.00;;;;;;5055978;28;20514;-71
2023/12/17 03:50:26;;;;;;;12.60;7.50;;;9.30;1.00;;;;;;5059595;28;20482;-74
2023/12/17 03:52:51;;;;;;;14.83;8.27;;;9.30;1.00;;;;;;5053756;28;20456;-72
2023/12/17 03:55:17;;;;;;;12.00;7.90;;;9.30;1.00;;;;;;5039899;28;20786;-73
2023/12/17 03:57:43;;;;;;;17.07;10.03;;;9.30;1.00;;;;;;5045726;28;20560;-71
2023/12/17 04:00:12;;;;;;;15.73;8.00;;;9.30;1.00;;;;;;5045714;28;20179;-70
2023/12/17 04:02:38;;;;;;;16.27;8.70;;;9.30;1.00;;;;;;5053658;28;20269;-69
2023/12/17 04:05:04;;;;;;;16.10;10.20;;;9.30;1.00;;;;;;5052522;28;20511;-71
2023/12/17 04:07:30;;;;;;;14.60;8.20;;;9.30;1.00;;;;;;5053855;28;20268;-70
2023/12/17 04:10:01;;;;;;;16.30;9.00;;;9.30;1.00;;;;;;5052954;28;20473;-74
2023/12/17 04:12:27;;;;;;;16.70;8.63;;;9.30;1.00;;;;;;5047802;28;20486;-74
2023/12/17 04:14:52;;;;;;;13.43;7.30;;;9.30;1.00;;;;;;5043057;28;20418;-69
2023/12/17 04:17:18;;;;;;;17.73;8.90;;;9.30;1.00;;;;;;5053000;28;20525;-73
2023/12/17 04:19:44;;;;;;;11.47;8.20;;;9.30;1.00;;;;;;5037307;28;20182;-70
2023/12/17 04:22:09;;;;;;;11.50;6.83;;;9.30;1.00;;;;;;5045172;28;20642;-74
2023/12/17 04:24:35;;;;;;;10.23;8.20;;;9.30;1.00;;;;;;5052843;28;20544;-72
2023/12/17 04:27:01;;;;;;;17.30;8.80;;;9.30;1.00;;;;;;5052505;28;20220;-70
2023/12/17 04:29:26;;;;;;;11.40;8.00;;;9.30;1.00;;;;;;5054057;28;20178;-68
2023/12/17 04:31:52;;;;;;;17.90;8.87;;;9.30;1.00;;;;;;5045136;28;20221;-74
2023/12/17 04:34:18;;;;;;;13.07;8.60;;;9.30;1.00;;;;;;5043411;28;20181;-72
2023/12/17 04:36:44;;;;;;;15.93;8.00;;;9.30;1.00;;;;;;5044442;28;20596;-69
2023/12/17 04:39:10;;;;;;;18.03;10.07;;;9.30;1.00;;;;;;5051576;28;20194;-69
2023/12/17 04:41:36;;;;;;;28.47;8.33;;;9.30;1.00;;;;;;5045220;28;20183;-70
2023/12/17 04:44:03;;;;;;;11.00;7.80;;;9.30;1.00;;;;;;5056244;28;20413;-74
2023/12/17 04:46:29;;;;;;;21.10;8.87;;;9.40;1.00;;;;;;5062626;28;20526;-68
2023/12/17 04:48:55;;;;;;;21.80;8.23;;;9.30;1.00;;;;;;5033845;28;20505;-74
2023/12/17 04:51:22;;;;;;;12.03;8.00;;;9.30;1.00;;;;;;5040351;28;20482;-72
2023/12/17 04:53:51;;;;;;;19.97;8.60;;;9.30;1.00;;;;;;5043615;28;20407;-71
2023/12/17 04:56:18;;;;;;;15.63;8.40;;;9.30;1.00;;;;;;5050357;28;20443;-69
2023/12/17 04:58:43;;;;;;;13.50;7.50;;;9.30;1.00;;;;;;5045351;28;20469;-69
2023/12/17 05:01:09;;;;;;;19.33;8.10;;;9.30;1.00;;;;;;5040464;28;20423;-69
2023/12/17 05:03:36;;;;;;;19.30;8.27;;;9.30;1.00;;;;;;5053243;28;20647;-69
2023/12/17 05:06:02;;;;;;;12.43;8.03;;;9.30;1.00;;;;;;5051926;28;20490;-70
2023/12/17 05:08:28;;;;;;;13.17;7.83;;;9.30;1.00;;;;;;5056013;28;20451;-68
2023/12/17 05:10:54;;;;;;;14.23;7.90;;;9.30;1.00;;;;;;5051943;28;20399;-69
2023/12/17 05:13:20;;;;;;;10.80;8.17;;;9.40;1.00;;;;;;5048152;28;20235;-67
2023/12/17 05:15:46;;;;;;;13.50;7.50;;;9.40;1.00;;;;;;5032223;28;20181;-73
2023/12/17 05:18:12;;;;;;;17.10;8.03;;;9.40;1.00;;;;;;5033230;28;20988;-71
2023/12/17 05:20:38;;;;;;;22.57;8.27;;;9.40;1.00;;;;;;5053320;28;20434;-68
2023/12/17 05:23:03;;;;;;;11.20;7.00;;;9.40;1.00;;;;;;5036103;28;20673;-74
2023/12/17 05:25:29;;;;;;;9.83;8.00;;;9.40;1.00;;;;;;5039369;28;20422;-72
2023/12/17 05:27:55;;;;;;;18.43;9.03;;;9.30;1.00;;;;;;5045711;28;20219;-74
2023/12/17 05:30:22;;;;;;;12.50;9.00;;;9.40;1.00;;;;;;5036735;28;20424;-69
2023/12/17 05:32:48;;;;;;;22.67;8.03;;;9.40;1.00;;;;;;5055256;28;20242;-70
2023/12/17 05:35:14;;;;;;;13.90;7.00;;;9.30;1.00;;;;;;5052601;28;20408;-68
2023/12/17 05:37:40;;;;;;;12.30;7.23;;;9.40;1.00;;;;;;5052671;28;20997;-74
2023/12/17 05:40:07;;;;;;;9.87;4.90;;;9.30;1.00;;;;;;5052134;28;20217;-72
2023/12/17 05:42:34;;;;;;;10.97;6.53;;;9.30;1.00;;;;;;5052818;28;20571;-68
2023/12/17 05:45:00;;;;;;;13.63;7.83;;;9.40;1.00;;;;;;5051638;28;20399;-68
2023/12/17 05:47:26;;;;;;;11.47;6.93;;;9.40;1.00;;;;;;5049579;28;20514;-73
2023/12/17 05:49:51;;;;;;;15.63;7.20;;;9.40;1.00;;;;;;5033956;28;20257;-70
2023/12/17 05:52:17;;;;;;;10.73;8.77;;;9.40;1.00;;;;;;5047155;28;20193;-69
2023/12/17 05:54:45;;;;;;;7.53;6.80;;;9.40;1.00;;;;;;5055484;28;20712;-68
2023/12/17 05:57:11;;;;;;;8.40;7.57;;;9.40;1.00;;;;;;5066646;28;20212;-69
2023/12/17 05:59:37;;;;;;;23.27;9.07;;;9.40;1.00;;;;;;5054218;28;20509;-72
2023/12/17 06:02:03;;;;;;;11.60;6.70;;;9.40;1.00;;;;;;5060779;28;20923;-68
2023/12/17 06:04:28;;;;;;;9.90;6.37;;;9.40;1.00;;;;;;5054392;28;20177;-73
2023/12/17 06:06:55;;;;;;;9.33;7.00;;;9.40;1.00;;;;;;5070260;28;20562;-68
2023/12/17 06:09:22;;;;;;;9.40;6.93;;;9.40;1.00;;;;;;5050623;28;20180;-74
2023/12/17 06:11:49;;;;;;;10.33;7.00;;;9.40;1.00;;;;;;5054398;28;20954;-68
2023/12/17 06:14:16;;;;;;;12.13;8.30;;;9.40;1.00;;;;;;5057158;28;20442;-70
2023/12/17 06:16:44;;;;;;;9.33;7.73;;;9.40;1.00;;;;;;5068692;28;20922;-68
2023/12/17 06:19:13;;;;;;;9.00;8.20;;;9.40;1.00;;;;;;5075893;28;20486;-67
2023/12/17 06:21:39;;;;;;;10.60;8.30;;;9.40;1.00;;;;;;5074538;28;20402;-67
2023/12/17 06:24:05;;;;;;;13.90;8.50;;;9.40;1.00;;;;;;5076551;28;20488;-73
2023/12/17 06:26:31;;;;;;;10.80;8.70;;;9.40;1.00;;;;;;5052896;28;20176;-73
2023/12/17 06:28:57;;;;;;;10.10;8.43;;;9.40;1.00;;;;;;5074595;28;20848;-74
2023/12/17 06:31:24;;;;;;;11.97;7.17;;;9.40;1.00;;;;;;5068262;28;20483;-74
2023/12/17 06:33:53;;;;;;;14.70;8.90;;;9.40;1.00;;;;;;5054933;28;20404;-71
2023/12/17 06:36:19;;;;;;;11.60;7.40;;;9.40;1.00;;;;;;5055027;28;20406;-70
2023/12/17 06:38:45;;;;;;;10.43;7.63;;;9.40;1.00;;;;;;5055585;28;20967;-73
2023/12/17 06:41:11;;;;;;;18.13;7.43;;;9.40;1.00;;;;;;5053400;28;20417;-68
2023/12/17 06:43:39;;;;;;;14.67;7.93;;;9.40;1.00;;;;;;5073676;28;20181;-68
2023/12/17 06:46:06;;;;;;;12.90;8.40;;;9.40;1.00;;;;;;5069519;28;20654;-69
2023/12/17 06:48:35;;;;;;;7.37;6.33;;;9.40;1.00;;;;;;5054863;28;20451;-68
2023/12/17 06:51:01;;;;;;;10.10;7.23;;;9.40;1.00;;;;;;5046585;28;20924;-70
2023/12/17 06:53:28;;;;;;;9.20;6.20;;;9.40;1.00;;;;;;5055820;28;20451;-73
2023/12/17 06:55:53;;;;;;;8.30;7.40;;;9.40;1.00;;;;;;5050296;28;20442;-73
2023/12/17 06:58:19;;;;;;;8.60;6.50;;;9.40;1.00;;;;;;5060400;28;20867;-74
2023/12/17 07:00:45;;;;;;;8.70;5.70;;;9.40;1.00;;;;;;5063945;28;20183;-73
2023/12/17 07:03:11;;;;;;;13.40;8.50;;;9.40;1.00;;;;;;5060620;28;20432;-71
2023/12/17 07:05:37;;;;;;;12.03;7.80;;;9.40;1.00;;;;;;5070027;28;20180;-68
2023/12/17 07:08:03;;;;;;;10.33;7.07;;;9.40;1.00;;;;;;5063044;28;20461;-69
2023/12/17 07:10:28;;;;;;;16.27;7.90;;;9.40;1.00;;;;;;5044636;28;20227;-72
2023/12/17 07:12:54;;;;;;;16.57;7.20;;;9.30;1.00;;;;;;5061119;28;20195;-68
2023/12/17 07:15:19;;;;;;;12.47;7.47;;;9.30;1.00;;;;;;5070405;28;20186;-69
2023/12/17 07:17:45;;;;;;;8.10;6.40;;;9.30;1.00;;;;;;5059470;28;20218;-70
2023/12/17 07:20:11;;;;;;;10.87;7.10;;;9.30;1.00;;;;;;5059002;28;20535;-68
2023/12/17 07:22:38;;;;;;;17.90;7.13;;;9.30;1.00;;;;;;5060986;28;20200;-72
2023/12/17 07:25:04;;;;;;;8.50;6.83;;;9.30;1.00;;;;;;5052310;28;20274;-72
2023/12/17 07:27:30;;;;;;;13.13;6.97;;;9.30;1.00;;;;;;5059590;28;20457;-73
2023/12/17 07:29:57;;;;;;;11.23;7.20;;;9.30;1.00;;;;;;5055761;28;20547;-71
2023/12/17 07:32:23;;;;;;;15.97;7.13;;;9.30;1.00;;;;;;5070140;28;20812;-71
2023/12/17 07:34:48;;;;;;;8.77;6.73;;;9.30;1.00;;;;;;5054885;28;20174;-70
2023/12/17 07:37:14;;;;;;;20.40;8.13;;;9.30;1.00;;;;;;5054516;28;20218;-73
2023/12/17 07:39:40;;;;;;;10.40;7.10;;;9.40;1.00;;;;;;5056244;28;20232;-72
2023/12/17 07:42:05;;;;;;;9.67;8.53;;;9.30;1.00;;;;;;5062148;28;20210;-73
2023/12/17 07:44:31;;;;;;;8.50;7.63;;;9.30;1.00;;;;;;5061786;28;20600;-72
2023/12/17 07:46:57;;;;;;;12.03;8.60;;;9.30;1.00;;;;;;5054456;28;20184;-68
2023/12/17 07:49:24;;;;;;;12.30;7.23;;;9.30;1.00;;;;;;5054779;28;20505;-67
2023/12/17 07:51:49;;;;;;;9.20;6.93;;;9.30;1.00;;;;;;5055608;28;20376;-68
2023/12/17 07:54:15;;;;;;;8.47;6.60;;;9.30;1.00;;;;;;5054872;28;20423;-68
2023/12/17 07:56:41;;;;;;;11.17;7.00;;;9.40;1.00;;;;;;5055038;28;20509;-66
2023/12/17 07:59:07;;;;;;;9.30;8.13;;;9.30;1.00;;;;;;5055921;28;20432;-68
2023/12/17 08:01:34;;;;;;;11.23;6.57;;;9.30;1.00;;;;;;5054348;28;20190;-67
2023/12/17 08:04:00;;;;;;;14.10;6.80;;;9.40;1.00;;;;;;5055507;28;20524;-73
2023/12/17 08:06:26;;;;;;;15.93;6.10;;;9.40;1.00;;;;;;5059761;28;20407;-67
2023/12/17 08:08:56;;;;;;;11.80;7.93;;;9.40;1.00;;;;;;5075568;28;20434;-70
2023/12/17 08:11:22;;;;;;;12.20;5.17;;;9.40;1.00;;;;;;5059146;28;20893;-71
2023/12/17 08:13:47;;;;;;;6.93;5.77;;;9.40;1.00;;;;;;5054872;28;20437;-67
2023/12/17 08:16:13;;;;;;;12.27;6.03;;;9.40;1.00;;;;;;5067949;28;20567;-69
2023/12/17 08:18:39;;;;;;;9.00;5.67;;;9.50;1.00;;;;;;5073688;28;20243;-68
2023/12/17 08:21:05;;;;;;;9.77;5.27;;;9.50;1.00;;;;;;5073423;28;20169;-69
2023/12/17 08:23:31;;;;;;;10.60;6.60;;;9.50;1.00;;;;;;5053922;28;20217;-71
2023/12/17 08:25:57;;;;;;;7.87;5.67;;;9.50;1.00;;;;;;5065386;28;20400;-66
2023/12/17 08:28:23;;;;;;;7.50;5.53;;;9.50;1.00;;;;;;5074952;28;20422;-67
2023/12/17 08:30:49;;;;;;;8.33;5.90;;;9.40;1.00;;;;;;5072042;28;20574;-66
2023/12/17 08:33:16;;;;;;;15.30;7.70;;;9.40;1.00;;;;;;5074155;28;20385;-70
2023/12/17 08:35:44;;;;;;;8.50;6.87;;;9.40;99.90;;;;;;5070936;28;20527;-70
2023/12/17 08:38:09;;;;;;;6.67;6.20;;;9.40;99.90;;;;;;5066744;28;20492;-73
2023/12/17 08:40:37;;;;;;;16.47;6.50;;;9.40;99.90;;;;;;5049125;28;20463;-73
2023/12/17 08:43:07;;;;;;;6.70;6.10;;;9.40;99.90;;;;;;5055367;28;20174;-74
2023/12/17 08:45:34;;;;;;;12.50;6.60;;;9.40;99.90;;;;;;5063521;28;20431;-71
2023/12/17 08:48:00;;;;;;;14.93;7.27;;;9.40;99.90;;;;;;5071388;28;20436;-73
2023/12/17 08:50:26;;;;;;;9.03;6.50;;;9.40;99.90;;;;;;5072372;28;20983;-67
2023/12/17 08:52:52;;;;;;;13.07;6.60;;;9.40;99.90;;;;;;5074631;28;20486;-73
2023/12/17 08:55:19;;;;;;;10.93;6.87;;;9.30;99.90;;;;;;5063068;28;20432;-67
2023/12/17 08:57:48;;;;;;;9.47;7.30;;;9.30;99.90;;;;;;5050481;28;20351;-67
2023/12/17 09:00:18;;;;;;;7.10;6.50;;;9.40;99.90;;;;;;5054365;28;20983;-66
2023/12/17 09:02:43;;;;;;;6.37;5.77;;;9.40;99.90;;;;;;5052892;28;20384;-68
2023/12/17 09:05:09;;;;;;;7.17;6.40;;;9.30;99.90;;;;;;5053296;28;20390;-73
2023/12/17 09:07:36;;;;;;;8.03;6.97;;;9.30;99.90;;;;;;5053166;28;20277;-72
2023/12/17 09:10:02;;;;;;;8.07;5.83;;;9.30;99.90;;;;;;5053501;28;20398;-67
2023/12/17 09:12:28;;;;;;;6.73;6.10;;;9.30;99.90;;;;;;5054703;28;20399;-66
2023/12/17 09:14:54;;;;;;;11.60;7.03;;;9.30;99.90;;;;;;5053317;28;20462;-67
2023/12/17 09:17:20;;;;;;;8.70;6.67;;;9.30;99.90;;;;;;5054038;28;20520;-69
2023/12/17 09:19:46;;;;;;;10.90;6.80;;;9.30;99.90;;;;;;5053935;28;20170;-67
2023/12/17 09:22:12;;;;;;;6.87;5.90;;;9.40;99.90;;;;;;5052816;28;20173;-74
2023/12/17 09:24:38;;;;;;;7.27;5.57;;;9.30;99.90;;;;;;5051782;28;20431;-65
2023/12/17 09:27:04;;;;;;;10.63;6.60;;;9.40;99.90;;;;;;5053477;28;20212;-66
2023/12/17 09:29:29;;;;;;;8.77;5.80;;;9.30;99.90;;;;;;5053960;28;20198;-73
2023/12/17 09:31:55;;;;;;;8.60;6.30;;;9.40;99.90;;;;;;5054152;28;20193;-73
2023/12/17 09:34:21;;;;;;;8.17;5.93;;;9.40;99.90;;;;;;5054799;28;20170;-72
2023/12/17 09:36:46;;;;;;;7.90;6.70;;;9.30;99.90;;;;;;5052667;28;20233;-66
2023/12/17 09:39:12;;;;;;;7.37;6.63;;;9.30;99.90;;;;;;5053958;28;20240;-73
2023/12/17 09:41:41;;;;;;;8.23;6.10;;;9.40;99.90;;;;;;5052854;28;20261;-73
2023/12/17 09:44:07;;;;;;;9.37;7.33;;;9.30;99.90;;;;;;5053322;28;20174;-72
2023/12/17 09:46:34;;;;;;;11.50;7.87;;;9.30;99.90;;;;;;5052328;28;20408;-66
2023/12/17 09:49:01;;;;;;;9.87;7.37;;;9.30;99.90;;;;;;5053537;28;20248;-73
2023/12/17 09:51:28;;;;;;;9.67;7.50;;;9.30;99.90;;;;;;5052705;28;20390;-73
2023/12/17 09:53:57;;;;;;;8.63;6.63;;;9.30;99.90;;;;;;5053036;28;20438;-67
2023/12/17 09:56:24;;;;;;;13.63;9.73;;;9.20;99.90;;;;;;5051943;28;20759;-69
2023/12/17 09:58:50;;;;;;;10.50;7.50;;;9.30;99.90;;;;;;5053448;28;20797;-71
2023/12/17 10:01:15;;;;;;;18.47;9.40;;;9.30;99.90;;;;;;5051883;28;20412;-73
2023/12/17 10:03:41;;;;;;;15.67;8.17;;;9.30;99.90;;;;;;5052975;28;20178;-73
2023/12/17 10:06:07;;;;;;;14.77;7.83;;;9.30;99.90;;;;;;5052332;28;20397;-66
2023/12/17 10:08:36;;;;;;;12.73;7.70;;;9.30;99.90;;;;;;5052816;28;20209;-71
2023/12/17 10:11:02;;;;;;;9.10;7.50;;;9.30;99.90;;;;;;5054022;28;20409;-72
2023/12/17 10:13:28;;;;;;;10.20;7.10;;;9.20;99.90;;;;;;5053408;28;20413;-66
2023/12/17 10:15:55;;;;;;;14.50;9.03;;;9.20;99.90;;;;;;5050977;28;20233;-66
2023/12/17 10:18:22;;;;;;;7.30;5.93;;;9.20;99.90;;;;;;5052228;28;20525;-74
2023/12/17 10:20:49;;;;;;;10.90;6.73;;;9.20;99.90;;;;;;5052972;28;20376;-67
2023/12/17 10:23:15;;;;;;;8.27;7.43;;;9.20;99.90;;;;;;5052928;28;20376;-72
2023/12/17 10:25:42;;;;;;;10.50;8.50;;;9.20;99.90;;;;;;5052806;28;20931;-72
2023/12/17 10:28:12;;;;;;;10.43;8.10;;;9.20;99.90;;;;;;5053292;28;20398;-72
2023/12/17 10:30:39;;;;;;;9.60;7.23;;;9.20;99.90;;;;;;5053042;28;20422;-66
2023/12/17 10:33:05;;;;;;;15.43;8.40;;;9.20;99.90;;;;;;5052822;28;20508;-72
2023/12/17 10:35:35;;;;;;;9.37;7.77;;;9.20;99.90;;;;;;5052428;28;20415;-72
2023/12/17 10:38:03;;;;;;;10.00;7.10;;;9.20;99.90;;;;;;5052865;28;20494;-70
2023/12/17 10:40:29;;;;;;;22.80;8.07;;;9.20;99.90;;;;;;5052876;28;20413;-71
2023/12/17 10:42:57;;;;;;;15.83;8.47;;;9.20;99.90;;;;;;5051703;28;20476;-66
2023/12/17 10:45:24;;;;;;;13.80;8.03;;;9.20;99.90;;;;;;5051964;28;20406;-71
2023/12/17 10:47:58;;;;;;;14.27;8.87;;;9.20;99.90;;;;;;5053292;28;20395;-68
2023/12/17 10:50:25;;;;;;;13.63;9.57;;;9.20;99.90;;;;;;5051877;28;20953;-66
2023/12/17 10:52:51;;;;;;;13.57;10.10;;;9.20;99.90;;;;;;5040006;28;20891;-72
2023/12/17 10:55:18;;;;;;;12.93;10.17;;;9.20;99.90;;;;;;5039582;28;20427;-69
2023/12/17 10:57:54;;;;;;;13.80;10.30;;;9.30;99.90;;;;;;5053321;28;20437;-66
2023/12/17 11:00:24;;;;;;;15.77;11.53;;;9.30;99.90;;;;;;5052836;28;20448;-72
2023/12/17 11:02:54;;;;;;;12.40;10.27;;;9.30;99.90;;;;;;5052673;28;20382;-73
2023/12/17 11:05:20;;;;;;;12.90;10.30;;;9.30;99.90;;;;;;5052254;28;20394;-73
2023/12/17 11:07:45;;;;;;;11.20;10.10;;;9.40;99.90;;;;;;5056299;28;20429;-72
2023/12/17 11:10:12;;;;;;;18.10;11.70;;;9.40;99.90;;;;;;5056887;28;20269;-73
2023/12/17 11:12:39;;;;;;;22.80;11.63;;;9.30;99.90;;;;;;5055739;28;20513;-73
2023/12/17 11:15:06;;;;;;;18.60;10.60;;;9.40;99.90;;;;;;5055514;28;20913;-66
2023/12/17 11:17:32;;;;;;;14.23;10.07;;;9.40;99.90;;;;;;5055791;28;20474;-69
2023/12/17 11:20:00;;;;;;;16.40;10.73;;;9.40;99.90;;;;;;5056465;28;20376;-66
2023/12/17 11:22:27;;;;;;;13.00;10.87;;;9.40;99.90;;;;;;5055847;28;20376;-71
2023/12/17 11:24:55;;;;;;;11.07;9.90;;;9.40;99.90;;;;;;5057375;28;20435;-66
2023/12/17 11:27:22;;;;;;;9.63;8.60;;;9.50;99.90;;;;;;5044963;28;20523;-67
2023/12/17 11:29:49;;;;;;;11.03;8.87;;;9.50;99.90;;;;;;5058414;28;20408;-68
2023/12/17 11:32:19;;;;;;;9.87;8.93;;;9.50;99.90;;;;;;5054496;28;20419;-68
2023/12/17 11:34:50;;;;;;;14.20;8.03;;;9.50;99.90;;;;;;5069707;28;20440;-67
2023/12/17 11:37:21;;;;;;;8.33;7.63;;;9.50;99.90;;;;;;5048183;28;20467;-67
2023/12/17 11:39:51;;;;;;;13.53;8.00;;;9.40;99.90;;;;;;5050829;28;20415;-70
2023/12/17 11:42:19;;;;;;;7.63;6.70;;;9.50;99.90;;;;;;5039412;28;20384;-68
2023/12/17 11:44:46;;;;;;;9.33;7.03;;;9.50;99.90;;;;;;5051315;28;20439;-66
2023/12/17 11:47:12;;;;;;;8.33;7.53;;;9.40;99.90;;;;;;5063370;28;20439;-74
2023/12/17 11:49:38;;;;;;;10.47;8.37;;;9.50;99.90;;;;;;5068526;28;20402;-71
2023/12/17 11:52:14;;;;;;;10.77;7.10;;;9.50;99.90;;;;;;5050762;28;20414;-74
2023/12/17 11:54:42;;;;;;;8.50;7.50;;;9.50;99.90;;;;;;5052918;28;20186;-74
2023/12/17 11:57:21;;;;;;;13.73;8.03;;;9.50;99.90;;;;;;5064395;28;20997;-68
2023/12/17 11:59:47;;;;;;;8.90;7.83;;;9.50;99.90;;;;;;5074020;28;20817;-70
2023/12/17 12:02:17;;;;;;;10.37;8.70;;;9.50;99.90;;;;;;5039554;28;20415;-69
2023/12/17 12:04:44;;;;;;;8.63;7.37;;;9.50;99.90;;;;;;5037226;28;20427;-69
2023/12/17 12:07:11;;;;;;;10.03;8.70;;;9.50;99.90;;;;;;5035387;28;20412;-68
2023/12/17 12:09:37;;;;;;;12.07;8.63;;;9.50;99.90;;;;;;5063756;28;20538;-67
2023/12/17 12:12:21;;;;;;;11.13;8.30;;;9.60;99.90;;;;;;5054129;28;20421;-68
2023/12/17 12:14:50;;;;;;;11.37;8.97;;;9.60;99.90;;;;;;5034506;28;20707;-72
2023/12/17 12:17:35;;;;;;;8.33;7.53;;;9.60;99.90;;;;;;5035489;28;21023;-72
2023/12/17 12:20:00;;;;;;;10.70;8.90;;;9.70;99.90;;;;;;5052087;28;20515;-73
2023/12/17 12:22:29;;;;;;;12.30;8.47;;;9.60;99.90;;;;;;5057069;28;20414;-67
2023/12/17 12:24:56;;;;;;;11.50;8.57;;;9.60;99.90;;;;;;5046879;28;20201;-73
2023/12/17 12:27:22;;;;;;;11.50;9.70;;;9.60;99.90;;;;;;5052100;28;20646;-75
2023/12/17 12:29:48;;;;;;;9.57;8.20;;;9.60;99.90;;;;;;5070177;28;20393;-69
2023/12/17 12:32:30;;;;;;;12.20;9.30;;;9.70;99.90;;;;;;5061395;28;20769;-67
2023/12/17 12:34:57;;;;;;;13.27;10.87;;;9.60;99.90;;;;;;5057994;28;20261;-68
2023/12/17 12:37:43;;;;;;;11.80;10.17;;;9.60;99.90;;;;;;5054736;28;20931;-73
2023/12/17 12:40:09;;;;;;;10.27;8.57;;;9.60;99.90;;;;;;5051597;28;20434;-73
2023/12/17 12:42:35;;;;;;;11.03;9.93;;;9.60;99.90;;;;;;5067659;28;20441;-71
2023/12/17 12:45:01;;;;;;;14.70;11.30;;;9.60;99.90;;;;;;5073710;28;20512;-66
2023/12/17 12:47:28;;;;;;;16.40;10.50;;;9.60;99.90;;;;;;5072279;28;20416;-74
2023/12/17 12:49:54;;;;;;;13.47;10.30;;;9.60;99.90;;;;;;5069582;28;20425;-69
2023/12/17 12:52:22;;;;;;;17.13;11.13;;;9.70;99.90;;;;;;5057121;28;20447;-68